createdAt,value
2023-05-14T00:00:28.018Z,15.70
2023-05-14T00:01:28.360Z,17.50
2023-05-14T00:02:28.109Z,19.80
2023-05-14T00:03:28.204Z,18.50
2023-05-14T00:04:28.054Z,17.50
2023-05-14T00:05:28.443Z,17.40
2023-05-14T00:06:28.037Z,18.30
2023-05-14T00:07:28.043Z,16.10
2023-05-14T00:08:28.181Z,17.70
2023-05-14T00:09:28.028Z,16.20
2023-05-14T00:10:28.508Z,18.20
2023-05-14T00:11:28.162Z,19.00
2023-05-14T00:12:28.070Z,19.70
2023-05-14T00:13:28.582Z,18.50
2023-05-14T00:14:28.178Z,17.30
2023-05-14T00:15:28.218Z,20.30
2023-05-14T00:16:28.264Z,19.60
2023-05-14T00:17:28.029Z,18.90
2023-05-14T00:18:28.225Z,16.40
2023-05-14T00:19:28.332Z,16.30
2023-05-14T00:20:28.410Z,16.00
2023-05-14T00:21:28.469Z,15.70
2023-05-14T00:22:28.491Z,17.70
2023-05-14T00:23:28.373Z,15.50
2023-05-14T00:24:28.893Z,16.60
2023-05-14T00:25:27.967Z,20.40
2023-05-14T00:26:28.904Z,21.00
2023-05-14T00:27:27.860Z,16.50
2023-05-14T00:28:28.388Z,19.20
2023-05-14T00:29:28.390Z,15.70
2023-05-14T00:30:28.052Z,18.10
2023-05-14T00:31:27.963Z,15.80
2023-05-14T00:32:28.124Z,17.30
2023-05-14T00:33:28.978Z,18.50
2023-05-14T00:34:27.861Z,19.60
2023-05-14T00:35:28.520Z,17.40
2023-05-14T00:36:27.784Z,16.80
2023-05-14T00:37:28.452Z,19.10
2023-05-14T00:38:28.282Z,17.60
2023-05-14T00:39:27.814Z,17.50
2023-05-14T00:40:27.835Z,16.90
2023-05-14T00:41:27.741Z,18.10
2023-05-14T00:42:27.744Z,17.00
2023-05-14T00:43:27.732Z,18.00
2023-05-14T00:44:27.771Z,21.00
2023-05-14T00:45:27.869Z,17.20
2023-05-14T00:46:27.749Z,17.90
2023-05-14T00:47:27.865Z,16.70
2023-05-14T00:48:27.768Z,16.40
2023-05-14T00:49:27.797Z,17.90
2023-05-14T00:50:27.873Z,20.00
2023-05-14T00:51:27.920Z,18.80
2023-05-14T00:52:27.702Z,19.40
2023-05-14T00:53:28.073Z,21.00
2023-05-14T00:54:28.153Z,18.60
2023-05-14T00:55:27.914Z,19.70
2023-05-14T00:56:27.649Z,18.50
2023-05-14T00:57:28.333Z,19.30
2023-05-14T00:58:28.369Z,18.80
2023-05-14T00:59:28.458Z,23.10
2023-05-14T01:00:28.004Z,18.00
2023-05-14T01:01:28.247Z,19.60
2023-05-14T01:02:27.949Z,19.50
2023-05-14T01:03:28.723Z,20.30
2023-05-14T01:04:27.604Z,17.90
2023-05-14T01:05:27.641Z,18.10
2023-05-14T01:06:27.859Z,17.60
2023-05-14T01:07:28.004Z,22.60
2023-05-14T01:08:28.115Z,18.80
2023-05-14T01:09:27.584Z,18.50
2023-05-14T01:10:28.238Z,19.40
2023-05-14T01:11:28.356Z,18.30
2023-05-14T01:12:28.513Z,17.30
2023-05-14T01:13:28.046Z,19.00
2023-05-14T01:14:27.678Z,20.00
2023-05-14T01:15:28.202Z,19.80
2023-05-14T01:16:27.672Z,17.90
2023-05-14T01:17:27.549Z,20.30
2023-05-14T01:18:27.615Z,19.10
2023-05-14T01:19:27.672Z,17.90
2023-05-14T01:20:27.707Z,17.90
2023-05-14T01:21:27.743Z,19.10
2023-05-14T01:22:27.835Z,18.30
2023-05-14T01:23:27.498Z,18.20
2023-05-14T01:24:27.626Z,18.50
2023-05-14T01:25:28.014Z,17.50
2023-05-14T01:26:28.090Z,18.50
2023-05-14T01:27:28.162Z,18.90
2023-05-14T01:28:27.560Z,17.50
2023-05-14T01:29:27.587Z,19.00
2023-05-14T01:30:28.374Z,18.60
2023-05-14T01:31:27.408Z,19.90
2023-05-14T01:32:27.700Z,19.90
2023-05-14T01:33:27.565Z,18.80
2023-05-14T01:34:27.419Z,19.70
2023-05-14T01:35:27.485Z,17.80
2023-05-14T01:36:27.541Z,20.10
2023-05-14T01:37:27.370Z,18.90
2023-05-14T01:38:27.640Z,20.60
2023-05-14T01:39:27.690Z,16.90
2023-05-14T01:40:27.740Z,19.30
2023-05-14T01:41:27.337Z,19.80
2023-05-14T01:42:27.566Z,18.30
2023-05-14T01:43:27.489Z,19.50
2023-05-14T01:44:27.328Z,20.70
2023-05-14T01:45:27.384Z,18.30
2023-05-14T01:46:27.476Z,18.00
2023-05-14T01:47:27.518Z,19.50
2023-05-14T01:48:27.577Z,20.20
2023-05-14T01:49:27.650Z,24.70
2023-05-14T01:50:27.269Z,17.90
2023-05-14T01:51:27.354Z,16.70
2023-05-14T01:52:27.265Z,20.60
2023-05-14T01:53:27.898Z,21.30
2023-05-14T01:54:27.936Z,18.40
2023-05-14T01:55:27.464Z,20.00
2023-05-14T01:56:27.291Z,19.40
2023-05-14T01:57:27.280Z,20.40
2023-05-14T01:58:27.747Z,20.50
2023-05-14T01:59:27.350Z,19.80
2023-05-14T02:00:27.929Z,20.10
2023-05-14T02:01:27.296Z,16.70
2023-05-14T02:02:27.327Z,17.50
2023-05-14T02:03:27.964Z,19.80
2023-05-14T02:04:27.682Z,18.80
2023-05-14T02:05:27.921Z,18.40
2023-05-14T02:06:28.184Z,20.60
2023-05-14T02:07:28.085Z,19.20
2023-05-14T02:08:27.238Z,19.20
2023-05-14T02:09:27.741Z,15.30
2023-05-14T02:10:28.058Z,19.70
2023-05-14T02:11:27.956Z,16.90
2023-05-14T02:12:28.017Z,19.10
2023-05-14T02:13:27.094Z,19.70
2023-05-14T02:14:27.122Z,19.30
2023-05-14T02:15:27.163Z,18.50
2023-05-14T02:16:27.282Z,18.10
2023-05-14T02:17:27.317Z,19.40
2023-05-14T02:18:27.339Z,17.30
2023-05-14T02:19:27.384Z,18.50
2023-05-14T02:20:27.061Z,20.10
2023-05-14T02:21:27.054Z,20.70
2023-05-14T02:22:27.045Z,19.90
2023-05-14T02:23:37.829Z,18.50
2023-05-14T02:24:27.067Z,19.00
2023-05-14T02:25:27.038Z,20.10
2023-05-14T02:26:27.085Z,20.70
2023-05-14T02:27:27.054Z,16.70
2023-05-14T02:28:27.127Z,18.50
2023-05-14T02:29:27.146Z,19.70
2023-05-14T02:30:27.131Z,16.50
2023-05-14T02:31:27.090Z,16.20
2023-05-14T02:32:27.219Z,16.00
2023-05-14T02:33:27.158Z,16.30
2023-05-14T02:34:27.136Z,17.30
2023-05-14T02:35:27.168Z,16.80
2023-05-14T02:36:27.164Z,17.80
2023-05-14T02:37:26.951Z,15.40
2023-05-14T02:38:27.194Z,17.30
2023-05-14T02:39:26.935Z,20.10
2023-05-14T02:40:27.207Z,18.20
2023-05-14T02:41:27.220Z,16.80
2023-05-14T02:42:26.990Z,17.20
2023-05-14T02:43:27.237Z,18.80
2023-05-14T02:44:27.003Z,19.90
2023-05-14T02:45:27.006Z,20.00
2023-05-14T02:46:27.027Z,18.70
2023-05-14T02:47:26.946Z,17.20
2023-05-14T02:48:27.059Z,17.30
2023-05-14T02:49:27.022Z,20.60
2023-05-14T02:50:26.974Z,18.80
2023-05-14T02:51:27.218Z,18.80
2023-05-14T02:52:26.869Z,18.60
2023-05-14T02:53:26.844Z,18.40
2023-05-14T02:54:27.357Z,17.30
2023-05-14T02:55:27.374Z,19.20
2023-05-14T02:56:27.183Z,18.30
2023-05-14T02:57:27.407Z,17.70
2023-05-14T02:58:28.458Z,17.50
2023-05-14T02:59:27.422Z,16.10
2023-05-14T03:00:27.178Z,18.00
2023-05-14T03:01:27.392Z,17.60
2023-05-14T03:02:27.211Z,17.60
2023-05-14T03:03:27.505Z,19.10
2023-05-14T03:04:27.480Z,17.30
2023-05-14T03:05:26.776Z,17.50
2023-05-14T03:06:27.488Z,21.00
2023-05-14T03:07:26.801Z,18.20
2023-05-14T03:08:27.232Z,18.70
2023-05-14T03:09:27.522Z,18.30
2023-05-14T03:10:27.374Z,16.90
2023-05-14T03:11:27.497Z,18.20
2023-05-14T03:12:26.770Z,17.60
2023-05-14T03:13:26.730Z,17.90
2023-05-14T03:14:26.833Z,19.10
2023-05-14T03:15:26.833Z,16.80
2023-05-14T03:16:26.938Z,18.10
2023-05-14T03:17:26.973Z,16.70
2023-05-14T03:18:27.015Z,18.50
2023-05-14T03:19:26.723Z,16.30
2023-05-14T03:20:26.798Z,16.30
2023-05-14T03:21:26.669Z,17.20
2023-05-14T03:22:26.723Z,15.80
2023-05-14T03:23:26.686Z,19.90
2023-05-14T03:24:26.827Z,17.20
2023-05-14T03:25:26.858Z,18.10
2023-05-14T03:26:26.920Z,17.40
2023-05-14T03:27:26.958Z,15.80
2023-05-14T03:28:26.877Z,15.40
2023-05-14T03:29:27.046Z,16.40
2023-05-14T03:30:27.221Z,15.50
2023-05-14T03:31:26.989Z,16.40
2023-05-14T03:32:27.259Z,14.90
2023-05-14T03:33:27.173Z,15.80
2023-05-14T03:34:26.584Z,17.20
2023-05-14T03:35:26.876Z,15.60
2023-05-14T03:36:27.114Z,15.70
2023-05-14T03:37:26.548Z,17.50
2023-05-14T03:38:26.548Z,17.10
2023-05-14T03:39:26.560Z,15.00
2023-05-14T03:40:26.639Z,18.50
2023-05-14T03:41:26.585Z,18.70
2023-05-14T03:42:26.616Z,15.80
2023-05-14T03:43:26.519Z,15.90
2023-05-14T03:44:26.532Z,17.60
2023-05-14T03:45:26.597Z,15.10
2023-05-14T03:46:26.670Z,15.50
2023-05-14T03:47:26.727Z,17.50
2023-05-14T03:48:26.771Z,16.00
2023-05-14T03:49:26.700Z,17.10
2023-05-14T03:50:26.727Z,16.00
2023-05-14T03:51:26.511Z,16.10
2023-05-14T03:52:26.500Z,17.40
2023-05-14T03:53:26.461Z,15.70
2023-05-14T03:54:26.741Z,15.30
2023-05-14T03:55:26.773Z,18.00
2023-05-14T03:56:27.942Z,18.50
2023-05-14T03:57:26.799Z,17.10
2023-05-14T03:58:26.550Z,16.90
2023-05-14T03:59:26.706Z,17.30
2023-05-14T04:00:27.478Z,18.00
2023-05-14T04:01:26.788Z,17.20
2023-05-14T04:02:27.966Z,16.80
2023-05-14T04:03:26.433Z,17.10
2023-05-14T04:04:26.453Z,19.60
2023-05-14T04:05:26.381Z,16.00
2023-05-14T04:06:26.440Z,17.50
2023-05-14T04:07:26.487Z,18.30
2023-05-14T04:08:26.412Z,18.60
2023-05-14T04:09:26.330Z,20.00
2023-05-14T04:10:26.433Z,20.20
2023-05-14T04:11:26.346Z,18.80
2023-05-14T04:12:26.353Z,18.10
2023-05-14T04:13:26.350Z,17.30
2023-05-14T04:14:26.307Z,17.60
2023-05-14T04:15:26.372Z,16.80
2023-05-14T04:16:26.466Z,17.00
2023-05-14T04:17:26.485Z,16.00
2023-05-14T04:18:26.622Z,18.20
2023-05-14T04:19:26.274Z,17.50
2023-05-14T04:20:26.626Z,17.20
2023-05-14T04:21:26.268Z,17.70
2023-05-14T04:22:26.274Z,16.90
2023-05-14T04:23:26.287Z,18.00
2023-05-14T04:24:26.304Z,16.30
2023-05-14T04:25:26.312Z,18.80
2023-05-14T04:26:26.246Z,14.30
2023-05-14T04:27:26.239Z,16.20
2023-05-14T04:28:26.246Z,16.00
2023-05-14T04:29:26.381Z,15.70
2023-05-14T04:30:26.425Z,15.70
2023-05-14T04:31:26.414Z,16.30
2023-05-14T04:32:26.424Z,15.70
2023-05-14T04:33:26.255Z,17.10
2023-05-14T04:34:26.445Z,17.30
2023-05-14T04:35:26.445Z,16.70
2023-05-14T04:36:26.233Z,17.10
2023-05-14T04:37:26.493Z,16.90
2023-05-14T04:38:26.138Z,18.10
2023-05-14T04:39:26.133Z,18.00
2023-05-14T04:40:26.462Z,17.30
2023-05-14T04:41:26.231Z,14.50
2023-05-14T04:42:26.271Z,16.30
2023-05-14T04:43:26.116Z,17.50
2023-05-14T04:44:26.277Z,17.40
2023-05-14T04:45:26.439Z,16.10
2023-05-14T04:46:26.517Z,16.70
2023-05-14T04:47:26.598Z,19.50
2023-05-14T04:48:26.640Z,15.70
2023-05-14T04:49:26.184Z,17.20
2023-05-14T04:50:26.646Z,15.00
2023-05-14T04:51:26.646Z,14.80
2023-05-14T04:52:26.672Z,16.20
2023-05-14T04:53:26.675Z,14.40
2023-05-14T04:54:26.824Z,16.60
2023-05-14T04:55:26.708Z,16.20
2023-05-14T04:56:26.154Z,17.60
2023-05-14T04:57:26.263Z,16.50
2023-05-14T04:58:26.147Z,15.30
2023-05-14T04:59:26.765Z,15.50
2023-05-14T05:00:26.741Z,13.90
2023-05-14T05:01:26.028Z,13.30
2023-05-14T05:02:26.142Z,13.40
2023-05-14T05:03:26.602Z,14.60
2023-05-14T05:04:26.827Z,16.40
2023-05-14T05:05:26.107Z,13.20
2023-05-14T05:06:25.976Z,14.20
2023-05-14T05:07:26.017Z,13.70
2023-05-14T05:08:26.063Z,13.20
2023-05-14T05:09:26.114Z,14.80
2023-05-14T05:10:26.226Z,12.00
2023-05-14T05:11:25.955Z,12.00
2023-05-14T05:12:25.979Z,13.10
2023-05-14T05:13:26.024Z,13.00
2023-05-14T05:14:26.083Z,11.50
2023-05-14T05:15:26.654Z,12.80
2023-05-14T05:16:26.165Z,12.20
2023-05-14T05:17:26.260Z,13.50
2023-05-14T05:18:26.372Z,13.00
2023-05-14T05:19:35.851Z,12.80
2023-05-14T05:20:26.430Z,12.40
2023-05-14T05:21:26.470Z,11.90
2023-05-14T05:22:26.554Z,12.50
2023-05-14T05:23:26.292Z,11.30
2023-05-14T05:24:26.665Z,12.70
2023-05-14T05:25:25.824Z,12.30
2023-05-14T05:26:25.836Z,14.30
2023-05-14T05:27:25.867Z,12.90
2023-05-14T05:28:25.871Z,12.90
2023-05-14T05:29:25.870Z,13.50
2023-05-14T05:30:26.058Z,11.70
2023-05-14T05:31:25.926Z,12.90
2023-05-14T05:32:25.895Z,11.80
2023-05-14T05:33:25.902Z,11.40
2023-05-14T05:34:25.888Z,11.50
2023-05-14T05:35:26.328Z,10.50
2023-05-14T05:36:26.299Z,13.00
2023-05-14T05:37:25.760Z,10.70
2023-05-14T05:38:25.754Z,12.00
2023-05-14T05:39:25.800Z,11.50
2023-05-14T05:40:25.928Z,12.00
2023-05-14T05:41:25.731Z,10.50
2023-05-14T05:42:25.728Z,11.80
2023-05-14T05:43:25.770Z,10.80
2023-05-14T05:44:25.735Z,12.10
2023-05-14T05:45:25.901Z,11.30
2023-05-14T05:46:25.826Z,11.70
2023-05-14T05:47:26.060Z,11.90
2023-05-14T05:48:26.136Z,12.20
2023-05-14T05:49:26.241Z,10.20
2023-05-14T05:50:26.118Z,12.00
2023-05-14T05:51:25.661Z,11.40
2023-05-14T05:52:25.689Z,11.40
2023-05-14T05:53:26.504Z,11.60
2023-05-14T05:54:26.045Z,11.70
2023-05-14T05:55:26.157Z,11.30
2023-05-14T05:56:25.605Z,10.90
2023-05-14T05:57:26.380Z,12.40
2023-05-14T05:58:25.621Z,10.10
2023-05-14T05:59:25.640Z,11.50
2023-05-14T06:00:25.979Z,10.40
2023-05-14T06:01:25.691Z,13.20
2023-05-14T06:02:25.825Z,11.60
2023-05-14T06:03:25.704Z,12.20
2023-05-14T06:04:25.857Z,11.90
2023-05-14T06:05:25.736Z,12.30
2023-05-14T06:06:25.951Z,10.70
2023-05-14T06:07:25.703Z,11.10
2023-05-14T06:08:25.557Z,11.30
2023-05-14T06:09:25.564Z,11.50
2023-05-14T06:10:25.789Z,11.10
2023-05-14T06:11:25.682Z,9.60
2023-05-14T06:12:25.815Z,10.20
2023-05-14T06:13:25.806Z,10.40
2023-05-14T06:14:25.857Z,11.80
2023-05-14T06:15:25.912Z,15.20
2023-05-14T06:16:25.996Z,11.90
2023-05-14T06:17:25.693Z,10.20
2023-05-14T06:18:25.940Z,11.80
2023-05-14T06:19:26.134Z,11.70
2023-05-14T06:20:26.503Z,11.00
2023-05-14T06:21:26.142Z,13.40
2023-05-14T06:22:25.758Z,11.90
2023-05-14T06:23:25.443Z,9.70
2023-05-14T06:24:25.506Z,10.40
2023-05-14T06:25:26.166Z,10.50
2023-05-14T06:26:26.206Z,11.70
2023-05-14T06:27:25.519Z,10.50
2023-05-14T06:28:25.417Z,9.80
2023-05-14T06:29:25.421Z,12.00
2023-05-14T06:30:25.749Z,10.40
2023-05-14T06:31:25.468Z,11.30
2023-05-14T06:32:26.210Z,10.80
2023-05-14T06:33:25.437Z,10.50
2023-05-14T06:34:25.446Z,10.70
2023-05-14T06:35:25.449Z,12.30
2023-05-14T06:36:25.458Z,11.90
2023-05-14T06:37:25.389Z,11.90
2023-05-14T06:38:25.345Z,12.90
2023-05-14T06:39:25.366Z,9.90
2023-05-14T06:40:25.574Z,10.70
2023-05-14T06:41:25.413Z,11.20
2023-05-14T06:42:25.312Z,13.30
2023-05-14T06:43:25.301Z,12.30
2023-05-14T06:44:25.450Z,12.70
2023-05-14T06:45:25.314Z,13.00
2023-05-14T06:46:25.473Z,10.70
2023-05-14T06:47:25.361Z,12.20
2023-05-14T06:48:25.569Z,10.80
2023-05-14T06:49:25.496Z,12.00
2023-05-14T06:50:25.765Z,12.80
2023-05-14T06:51:25.285Z,13.50
2023-05-14T06:52:25.236Z,12.40
2023-05-14T06:53:25.243Z,11.80
2023-05-14T06:54:25.285Z,12.20
2023-05-14T06:55:25.245Z,13.00
2023-05-14T06:56:25.252Z,13.50
2023-05-14T06:57:25.256Z,14.10
2023-05-14T06:58:25.208Z,13.50
2023-05-14T06:59:25.201Z,13.70
2023-05-14T07:00:25.676Z,14.20
2023-05-14T07:01:25.344Z,13.50
2023-05-14T07:02:25.252Z,12.10
2023-05-14T07:03:25.334Z,13.90
2023-05-14T07:04:25.370Z,15.60
2023-05-14T07:05:25.233Z,14.30
2023-05-14T07:06:25.248Z,12.70
2023-05-14T07:07:25.392Z,13.10
2023-05-14T07:08:25.121Z,12.50
2023-05-14T07:09:25.478Z,15.60
2023-05-14T07:10:25.639Z,13.60
2023-05-14T07:11:25.120Z,15.20
2023-05-14T07:12:25.132Z,14.70
2023-05-14T07:13:27.641Z,14.70
2023-05-14T07:14:25.116Z,13.20
2023-05-14T07:15:25.142Z,13.00
2023-05-14T07:16:25.166Z,13.10
2023-05-14T07:17:25.354Z,13.60
2023-05-14T07:18:25.392Z,11.90
2023-05-14T07:19:25.426Z,13.20
2023-05-14T07:20:25.645Z,11.90
2023-05-14T07:21:25.553Z,12.50
2023-05-14T07:22:25.029Z,12.90
2023-05-14T07:23:25.601Z,13.30
2023-05-14T07:24:25.585Z,12.40
2023-05-14T07:25:25.587Z,12.40
2023-05-14T07:26:25.587Z,12.80
2023-05-14T07:27:25.618Z,11.50
2023-05-14T07:28:25.609Z,13.30
2023-05-14T07:29:25.203Z,13.20
2023-05-14T07:30:25.846Z,16.20
2023-05-14T07:31:25.608Z,13.80
2023-05-14T07:32:25.498Z,15.40
2023-05-14T07:33:25.011Z,17.40
2023-05-14T07:34:25.026Z,15.90
2023-05-14T07:35:25.230Z,14.20
2023-05-14T07:36:24.976Z,15.00
2023-05-14T07:37:24.930Z,12.30
2023-05-14T07:38:25.048Z,13.70
2023-05-14T07:39:24.984Z,13.10
2023-05-14T07:40:25.519Z,13.60
2023-05-14T07:41:25.073Z,12.60
2023-05-14T07:42:35.303Z,12.20
2023-05-14T07:43:25.225Z,11.60
2023-05-14T07:44:25.307Z,11.70
2023-05-14T07:45:24.913Z,12.80
2023-05-14T07:46:24.926Z,13.10
2023-05-14T07:47:25.002Z,10.80
2023-05-14T07:48:24.931Z,11.60
2023-05-14T07:49:24.853Z,11.00
2023-05-14T07:50:25.241Z,11.40
2023-05-14T07:51:24.928Z,11.70
2023-05-14T07:52:25.044Z,11.90
2023-05-14T07:53:24.942Z,11.10
2023-05-14T07:54:24.962Z,12.80
2023-05-14T07:55:24.953Z,12.80
2023-05-14T07:56:25.011Z,11.50
2023-05-14T07:57:24.825Z,10.20
2023-05-14T07:58:24.983Z,11.60
2023-05-14T07:59:24.981Z,10.10
2023-05-14T08:00:25.254Z,10.90
2023-05-14T08:01:24.827Z,11.80
2023-05-14T08:02:24.842Z,12.90
2023-05-14T08:03:25.220Z,10.50
2023-05-14T08:04:25.146Z,10.50
2023-05-14T08:05:25.080Z,12.20
2023-05-14T08:06:24.757Z,12.00
2023-05-14T08:07:24.714Z,11.90
2023-05-14T08:08:24.764Z,10.00
2023-05-14T08:09:24.700Z,11.40
2023-05-14T08:10:25.024Z,11.50
2023-05-14T08:11:24.711Z,10.40
2023-05-14T08:12:24.694Z,10.40
2023-05-14T08:13:24.713Z,10.70
2023-05-14T08:14:24.989Z,9.30
2023-05-14T08:15:27.549Z,9.70
2023-05-14T08:16:25.168Z,10.40
2023-05-14T08:17:24.922Z,9.10
2023-05-14T08:18:25.242Z,9.00
2023-05-14T08:19:25.290Z,8.00
2023-05-14T08:20:25.868Z,9.60
2023-05-14T08:21:24.790Z,9.30
2023-05-14T08:22:25.487Z,9.40
2023-05-14T08:23:24.623Z,9.00
2023-05-14T08:24:24.741Z,9.20
2023-05-14T08:25:25.360Z,11.90
2023-05-14T08:26:24.616Z,8.20
2023-05-14T08:27:24.637Z,7.90
2023-05-14T08:28:24.572Z,9.10
2023-05-14T08:29:24.640Z,7.50
2023-05-14T08:30:24.876Z,8.40
2023-05-14T08:31:24.658Z,7.40
2023-05-14T08:32:24.658Z,8.70
2023-05-14T08:33:24.601Z,7.70
2023-05-14T08:34:24.602Z,6.40
2023-05-14T08:35:24.644Z,7.60
2023-05-14T08:36:24.602Z,6.70
2023-05-14T08:37:24.622Z,6.60
2023-05-14T08:38:24.593Z,5.80
2023-05-14T08:39:24.524Z,6.90
2023-05-14T08:40:24.709Z,5.00
2023-05-14T08:41:24.525Z,5.00
2023-05-14T08:42:24.532Z,4.00
2023-05-14T08:43:24.676Z,4.20
2023-05-14T08:44:24.547Z,4.30
2023-05-14T08:45:24.549Z,3.50
2023-05-14T08:46:24.697Z,4.50
2023-05-14T08:47:24.516Z,4.80
2023-05-14T08:48:24.575Z,3.80
2023-05-14T08:49:24.787Z,4.30
2023-05-14T08:50:25.175Z,3.20
2023-05-14T08:51:24.714Z,3.90
2023-05-14T08:52:24.806Z,4.00
2023-05-14T08:53:24.825Z,3.30
2023-05-14T08:54:24.847Z,3.70
2023-05-14T08:55:24.408Z,3.50
2023-05-14T08:56:24.620Z,4.20
2023-05-14T08:57:24.418Z,4.50
2023-05-14T08:58:24.911Z,4.20
2023-05-14T08:59:24.899Z,3.00
2023-05-14T09:00:24.869Z,4.70
2023-05-14T09:01:24.642Z,4.50
2023-05-14T09:02:24.537Z,3.50
2023-05-14T09:03:24.975Z,4.30
2023-05-14T09:04:24.967Z,4.00
2023-05-14T09:05:24.496Z,5.20
2023-05-14T09:06:24.994Z,3.90
2023-05-14T09:07:24.421Z,4.60
2023-05-14T09:08:24.323Z,4.00
2023-05-14T09:09:24.328Z,4.00
2023-05-14T09:10:24.765Z,5.80
2023-05-14T09:11:24.481Z,3.60
2023-05-14T09:12:24.557Z,4.00
2023-05-14T09:13:25.807Z,4.90
2023-05-14T09:14:24.670Z,4.40
2023-05-14T09:15:24.340Z,4.00
2023-05-14T09:16:24.849Z,3.30
2023-05-14T09:17:24.330Z,4.30
2023-05-14T09:18:24.979Z,2.90
2023-05-14T09:19:24.965Z,3.10
2023-05-14T09:20:25.535Z,4.00
2023-05-14T09:21:24.847Z,3.70
2023-05-14T09:22:24.397Z,3.70
2023-05-14T09:23:24.803Z,3.70
2023-05-14T09:24:24.530Z,3.30
2023-05-14T09:25:25.254Z,3.20
2023-05-14T09:26:24.949Z,3.90
2023-05-14T09:27:24.551Z,3.60
2023-05-14T09:28:24.750Z,3.70
2023-05-14T09:29:24.199Z,3.30
2023-05-14T09:30:25.361Z,3.80
2023-05-14T09:31:24.175Z,6.10
2023-05-14T09:32:24.695Z,3.20
2023-05-14T09:33:24.473Z,3.60
2023-05-14T09:34:24.824Z,3.40
2023-05-14T09:35:25.027Z,2.90
2023-05-14T09:36:24.109Z,2.80
2023-05-14T09:37:24.107Z,2.10
2023-05-14T09:38:24.114Z,3.10
2023-05-14T09:39:24.188Z,2.50
2023-05-14T09:40:24.819Z,2.40
2023-05-14T09:41:24.127Z,3.20
2023-05-14T09:42:24.236Z,3.00
2023-05-14T09:43:24.098Z,2.40
2023-05-14T09:44:24.136Z,3.30
2023-05-14T09:45:24.429Z,2.90
2023-05-14T09:46:24.441Z,2.20
2023-05-14T09:47:24.575Z,2.60
2023-05-14T09:48:24.557Z,3.30
2023-05-14T09:49:24.248Z,2.90
2023-05-14T09:50:24.667Z,3.10
2023-05-14T09:51:24.009Z,4.00
2023-05-14T09:52:23.998Z,3.20
2023-05-14T09:53:24.027Z,2.30
2023-05-14T09:54:24.010Z,2.60
2023-05-14T09:55:23.997Z,3.60
2023-05-14T09:56:23.973Z,3.70
2023-05-14T09:57:23.995Z,2.90
2023-05-14T09:58:24.345Z,4.20
2023-05-14T09:59:24.029Z,3.10
2023-05-14T10:00:24.106Z,3.00
2023-05-14T10:01:24.522Z,4.00
2023-05-14T10:02:24.567Z,3.20
2023-05-14T10:03:24.029Z,2.90
2023-05-14T10:04:23.975Z,2.90
2023-05-14T10:05:23.927Z,2.40
2023-05-14T10:06:23.972Z,2.30
2023-05-14T10:07:24.037Z,3.30
2023-05-14T10:08:23.956Z,2.20
2023-05-14T10:09:23.903Z,3.40
2023-05-14T10:10:24.283Z,2.40
2023-05-14T10:11:23.945Z,3.30
2023-05-14T10:12:24.215Z,4.80
2023-05-14T10:13:24.161Z,2.90
2023-05-14T10:14:24.469Z,2.90
2023-05-14T10:15:24.507Z,3.60
2023-05-14T10:16:24.447Z,3.70
2023-05-14T10:17:24.057Z,2.60
2023-05-14T10:18:24.700Z,3.40
2023-05-14T10:19:24.339Z,5.50
2023-05-14T10:20:24.399Z,3.10
2023-05-14T10:21:24.489Z,3.60
2023-05-14T10:22:23.963Z,5.00
2023-05-14T10:23:24.821Z,3.10
2023-05-14T10:24:24.281Z,3.10
2023-05-14T10:25:24.097Z,3.40
2023-05-14T10:26:24.357Z,3.10
2023-05-14T10:27:24.633Z,4.10
2023-05-14T10:28:23.965Z,2.90
2023-05-14T10:29:24.269Z,3.70
2023-05-14T10:30:24.427Z,3.10
2023-05-14T10:31:24.118Z,2.50
2023-05-14T10:32:23.885Z,2.40
2023-05-14T10:33:23.806Z,2.70
2023-05-14T10:34:23.804Z,4.70
2023-05-14T10:35:23.933Z,3.20
2023-05-14T10:36:23.739Z,3.10
2023-05-14T10:37:23.744Z,2.90
2023-05-14T10:38:23.839Z,3.20
2023-05-14T10:39:23.855Z,3.00
2023-05-14T10:40:24.284Z,2.90
2023-05-14T10:41:23.986Z,3.40
2023-05-14T10:42:23.988Z,3.30
2023-05-14T10:43:23.986Z,2.90
2023-05-14T10:44:24.089Z,2.50
2023-05-14T10:45:24.112Z,3.10
2023-05-14T10:46:23.830Z,3.30
2023-05-14T10:47:23.821Z,2.40
2023-05-14T10:48:23.776Z,2.90
2023-05-14T10:49:36.187Z,3.50
2023-05-14T10:50:24.116Z,2.40
2023-05-14T10:51:23.767Z,2.60
2023-05-14T10:52:23.843Z,3.20
2023-05-14T10:53:23.739Z,3.60
2023-05-14T10:54:23.751Z,3.50
2023-05-14T10:55:23.668Z,2.60
2023-05-14T10:56:23.555Z,3.00
2023-05-14T10:57:23.766Z,3.30
2023-05-14T10:58:23.763Z,2.90
2023-05-14T10:59:23.775Z,4.80
2023-05-14T11:00:24.044Z,3.20
2023-05-14T11:01:23.552Z,2.30
2023-05-14T11:02:23.568Z,3.80
2023-05-14T11:03:23.691Z,3.10
2023-05-14T11:04:23.706Z,2.80
2023-05-14T11:05:23.661Z,3.10
2023-05-14T11:06:23.558Z,3.20
2023-05-14T11:07:23.604Z,2.30
2023-05-14T11:08:26.476Z,3.90
2023-05-14T11:09:23.854Z,2.70
2023-05-14T11:10:24.195Z,3.20
2023-05-14T11:11:23.496Z,3.20
2023-05-14T11:12:23.661Z,3.30
2023-05-14T11:13:23.617Z,2.90
2023-05-14T11:14:23.742Z,2.40
2023-05-14T11:15:23.938Z,3.20
2023-05-14T11:16:24.137Z,3.00
2023-05-14T11:17:23.449Z,2.80
2023-05-14T11:18:23.976Z,3.00
2023-05-14T11:19:23.984Z,2.70
2023-05-14T11:20:23.866Z,3.00
2023-05-14T11:21:23.562Z,2.90
2023-05-14T11:22:23.465Z,3.20
2023-05-14T11:23:23.818Z,3.40
2023-05-14T11:24:23.396Z,2.70
2023-05-14T11:25:23.396Z,3.60
2023-05-14T11:26:23.402Z,2.70
2023-05-14T11:27:23.412Z,2.30
2023-05-14T11:28:23.405Z,2.80
2023-05-14T11:29:23.409Z,2.00
2023-05-14T11:30:23.648Z,3.20
2023-05-14T11:31:23.370Z,2.50
2023-05-14T11:32:23.487Z,2.80
2023-05-14T11:33:23.455Z,3.10
2023-05-14T11:35:49.344Z,2.20
2023-05-14T11:36:49.357Z,2.70
2023-05-14T11:37:49.389Z,3.30
2023-05-14T11:38:49.385Z,2.20
2023-05-14T11:39:49.280Z,2.80
2023-05-14T11:40:49.294Z,3.40
2023-05-14T11:41:49.278Z,3.80
2023-05-14T11:42:49.292Z,4.50
2023-05-14T11:43:49.307Z,2.30
2023-05-14T11:44:49.319Z,2.00
2023-05-14T11:45:49.354Z,2.30
2023-05-14T11:46:49.346Z,2.30
2023-05-14T11:47:49.269Z,2.10
2023-05-14T11:48:49.379Z,2.10
2023-05-14T11:49:49.241Z,2.30
2023-05-14T11:50:49.314Z,2.70
2023-05-14T11:51:49.279Z,2.70
2023-05-14T11:52:49.266Z,3.10
2023-05-14T11:53:49.227Z,2.70
2023-05-14T11:54:49.340Z,2.20
2023-05-14T11:55:49.275Z,2.50
2023-05-14T11:56:49.484Z,2.00
2023-05-14T11:57:49.253Z,1.80
2023-05-14T11:58:49.436Z,2.90
2023-05-14T11:59:49.157Z,2.00
2023-05-14T12:00:49.225Z,2.10
2023-05-14T12:01:50.672Z,2.00
2023-05-14T12:02:49.453Z,1.80
2023-05-14T12:03:49.482Z,2.20
2023-05-14T12:04:49.246Z,2.00
2023-05-14T12:05:49.317Z,2.70
2023-05-14T12:06:49.552Z,2.00
2023-05-14T12:07:49.151Z,1.70
2023-05-14T12:08:49.132Z,1.60
2023-05-14T12:09:49.172Z,2.10
2023-05-14T12:10:49.178Z,2.30
2023-05-14T12:11:49.135Z,3.30
2023-05-14T12:12:49.280Z,1.70
2023-05-14T12:13:49.123Z,2.40
2023-05-14T12:14:49.096Z,3.00
2023-05-14T12:15:49.212Z,2.20
2023-05-14T12:16:49.066Z,1.80
2023-05-14T12:17:49.081Z,1.90
2023-05-14T12:18:49.106Z,3.60
2023-05-14T12:19:49.073Z,2.00
2023-05-14T12:20:49.188Z,2.50
2023-05-14T12:21:49.197Z,1.70
2023-05-14T12:22:49.152Z,2.00
2023-05-14T12:23:49.018Z,1.70
2023-05-14T12:24:49.080Z,2.40
2023-05-14T12:25:49.207Z,1.90
2023-05-14T12:26:49.217Z,1.90
2023-05-14T12:27:49.251Z,1.70
2023-05-14T12:28:49.198Z,3.50
2023-05-14T12:29:49.227Z,2.50
2023-05-14T12:30:49.214Z,2.10
2023-05-14T12:31:49.106Z,3.20
2023-05-14T12:32:49.202Z,3.90
2023-05-14T12:33:49.096Z,2.80
2023-05-14T12:34:49.142Z,2.10
2023-05-14T12:35:49.070Z,2.00
2023-05-14T12:36:49.098Z,2.40
2023-05-14T12:37:49.225Z,2.20
2023-05-14T12:38:49.155Z,2.50
2023-05-14T12:39:48.994Z,2.10
2023-05-14T12:40:49.231Z,2.00
2023-05-14T12:41:49.380Z,3.10
2023-05-14T12:42:49.199Z,3.40
2023-05-14T12:43:48.908Z,2.40
2023-05-14T12:44:49.405Z,2.60
2023-05-14T12:45:48.898Z,2.20
2023-05-14T12:46:49.493Z,2.50
2023-05-14T12:47:49.536Z,2.50
2023-05-14T12:48:51.129Z,2.10
2023-05-14T12:49:48.850Z,2.00
2023-05-14T12:50:48.847Z,2.70
2023-05-14T12:51:51.192Z,3.00
2023-05-14T12:52:48.872Z,2.20
2023-05-14T12:53:48.843Z,2.00
2023-05-14T12:54:48.855Z,2.60
2023-05-14T12:55:48.859Z,2.40
2023-05-14T12:56:48.873Z,2.50
2023-05-14T12:57:48.880Z,2.20
2023-05-14T12:58:48.917Z,3.30
2023-05-14T12:59:49.766Z,2.20
2023-05-14T13:00:48.845Z,2.20
2023-05-14T13:01:48.813Z,2.30
2023-05-14T13:02:49.292Z,2.60
2023-05-14T13:03:49.413Z,2.30